sensor_id;sensor_type;location;lat;lon;timestamp;pressure;altitude;pressure_sealevel;temperature;humidity
25238;BME280;13185;50.872;5.306;2022-09-16T00:00:46;100831.31;;;14.13;93.54
25238;BME280;13185;50.872;5.306;2022-09-16T00:03:12;100830.19;;;14.15;93.71
25238;BME280;13185;50.872;5.306;2022-09-16T00:05:45;100841.00;;;14.15;93.91
25238;BME280;13185;50.872;5.306;2022-09-16T00:08:11;100832.91;;;14.15;93.81
25238;BME280;13185;50.872;5.306;2022-09-16T00:10:36;100828.63;;;14.13;93.66
25238;BME280;13185;50.872;5.306;2022-09-16T00:13:03;100829.47;;;14.13;93.50
25238;BME280;13185;50.872;5.306;2022-09-16T00:15:28;100827.75;;;14.12;93.65
25238;BME280;13185;50.872;5.306;2022-09-16T00:17:54;100833.41;;;14.09;93.75
25238;BME280;13185;50.872;5.306;2022-09-16T00:20:19;100833.75;;;14.05;93.94
25238;BME280;13185;50.872;5.306;2022-09-16T00:22:44;100838.53;;;14.01;93.54
25238;BME280;13185;50.872;5.306;2022-09-16T00:25:10;100836.09;;;13.98;94.10
25238;BME280;13185;50.872;5.306;2022-09-16T00:27:35;100837.31;;;13.94;94.30
25238;BME280;13185;50.872;5.306;2022-09-16T00:30:01;100833.88;;;13.92;94.29
25238;BME280;13185;50.872;5.306;2022-09-16T00:32:26;100830.47;;;13.90;94.20
25238;BME280;13185;50.872;5.306;2022-09-16T00:34:52;100834.00;;;13.91;94.32
25238;BME280;13185;50.872;5.306;2022-09-16T00:37:17;100829.34;;;13.93;93.99
25238;BME280;13185;50.872;5.306;2022-09-16T00:39:43;100825.78;;;13.92;93.62
25238;BME280;13185;50.872;5.306;2022-09-16T00:42:09;100828.75;;;13.89;93.38
25238;BME280;13185;50.872;5.306;2022-09-16T00:49:48;100839.78;;;13.86;93.32
25238;BME280;13185;50.872;5.306;2022-09-16T00:52:15;100836.44;;;13.82;93.03
25238;BME280;13185;50.872;5.306;2022-09-16T00:54:42;100840.25;;;13.80;93.07
25238;BME280;13185;50.872;5.306;2022-09-16T00:57:09;100833.25;;;13.77;93.30
25238;BME280;13185;50.872;5.306;2022-09-16T00:59:39;100833.25;;;13.77;92.81
25238;BME280;13185;50.872;5.306;2022-09-16T01:02:10;100834.25;;;13.76;92.25
25238;BME280;13185;50.872;5.306;2022-09-16T01:04:43;100842.56;;;13.73;92.10
25238;BME280;13185;50.872;5.306;2022-09-16T01:07:10;100850.63;;;13.73;91.74
25238;BME280;13185;50.872;5.306;2022-09-16T01:09:36;100840.72;;;13.74;91.51
25238;BME280;13185;50.872;5.306;2022-09-16T01:12:02;100839.97;;;13.72;91.23
25238;BME280;13185;50.872;5.306;2022-09-16T01:14:28;100837.53;;;13.69;90.68
25238;BME280;13185;50.872;5.306;2022-09-16T01:17:24;100840.47;;;13.66;89.93
25238;BME280;13185;50.872;5.306;2022-09-16T01:20:01;100855.16;;;13.62;89.41
25238;BME280;13185;50.872;5.306;2022-09-16T01:25:01;100848.50;;;13.54;88.49
25238;BME280;13185;50.872;5.306;2022-09-16T01:27:43;100836.13;;;13.52;88.48
25238;BME280;13185;50.872;5.306;2022-09-16T01:30:29;100846.06;;;13.51;87.93
25238;BME280;13185;50.872;5.306;2022-09-16T01:33:03;100842.88;;;13.46;87.32
25238;BME280;13185;50.872;5.306;2022-09-16T01:35:55;100842.16;;;13.44;87.36
25238;BME280;13185;50.872;5.306;2022-09-16T01:41:35;100831.09;;;13.36;86.60
25238;BME280;13185;50.872;5.306;2022-09-16T01:49:21;100850.28;;;13.32;85.89
25238;BME280;13185;50.872;5.306;2022-09-16T01:54:46;100843.31;;;13.29;85.36
25238;BME280;13185;50.872;5.306;2022-09-16T01:57:26;100839.00;;;13.26;85.38
25238;BME280;13185;50.872;5.306;2022-09-16T02:00:00;100835.06;;;13.19;85.22
25238;BME280;13185;50.872;5.306;2022-09-16T02:02:55;100831.06;;;13.12;85.71
25238;BME280;13185;50.872;5.306;2022-09-16T02:05:32;100836.69;;;13.09;85.67
25238;BME280;13185;50.872;5.306;2022-09-16T02:08:04;100835.97;;;13.07;85.72
25238;BME280;13185;50.872;5.306;2022-09-16T02:10:36;100834.13;;;13.08;85.73
25238;BME280;13185;50.872;5.306;2022-09-16T02:13:27;100828.97;;;13.05;85.45
25238;BME280;13185;50.872;5.306;2022-09-16T02:15:57;100826.41;;;13.03;85.62
25238;BME280;13185;50.872;5.306;2022-09-16T02:18:26;100820.38;;;12.99;85.86
25238;BME280;13185;50.872;5.306;2022-09-16T02:20:55;100824.16;;;12.97;86.40
25238;BME280;13185;50.872;5.306;2022-09-16T02:23:24;100827.97;;;12.94;86.72
25238;BME280;13185;50.872;5.306;2022-09-16T02:25:53;100832.59;;;12.92;86.48
25238;BME280;13185;50.872;5.306;2022-09-16T02:28:24;100834.53;;;12.90;86.63
25238;BME280;13185;50.872;5.306;2022-09-16T02:30:54;100835.50;;;12.89;86.40
25238;BME280;13185;50.872;5.306;2022-09-16T02:33:23;100828.41;;;12.88;86.72
25238;BME280;13185;50.872;5.306;2022-09-16T02:35:54;100833.06;;;12.86;86.72
25238;BME280;13185;50.872;5.306;2022-09-16T02:38:23;100835.00;;;12.84;86.67
25238;BME280;13185;50.872;5.306;2022-09-16T02:40:56;100840.38;;;12.84;86.67
25238;BME280;13185;50.872;5.306;2022-09-16T02:43:24;100828.13;;;12.80;86.85
25238;BME280;13185;50.872;5.306;2022-09-16T02:51:22;100824.63;;;12.67;86.96
25238;BME280;13185;50.872;5.306;2022-09-16T02:54:21;100824.84;;;12.64;86.69
25238;BME280;13185;50.872;5.306;2022-09-16T02:56:48;100823.16;;;12.63;86.53
25238;BME280;13185;50.872;5.306;2022-09-16T02:59:14;100824.97;;;12.62;86.45
25238;BME280;13185;50.872;5.306;2022-09-16T03:01:44;100828.00;;;12.58;86.19
25238;BME280;13185;50.872;5.306;2022-09-16T03:04:12;100823.69;;;12.55;86.53
25238;BME280;13185;50.872;5.306;2022-09-16T03:06:38;100827.47;;;12.53;86.44
25238;BME280;13185;50.872;5.306;2022-09-16T03:09:07;100824.06;;;12.51;86.44
25238;BME280;13185;50.872;5.306;2022-09-16T03:28:17;100826.25;;;12.33;86.45
25238;BME280;13185;50.872;5.306;2022-09-16T03:31:06;100820.22;;;12.29;86.60
25238;BME280;13185;50.872;5.306;2022-09-16T03:36:17;100812.72;;;12.22;87.06
25238;BME280;13185;50.872;5.306;2022-09-16T03:38:43;100812.50;;;12.25;86.94
25238;BME280;13185;50.872;5.306;2022-09-16T03:41:09;100808.09;;;12.24;86.99
25238;BME280;13185;50.872;5.306;2022-09-16T03:43:35;100810.03;;;12.22;86.98
25238;BME280;13185;50.872;5.306;2022-09-16T03:46:01;100810.16;;;12.20;87.30
25238;BME280;13185;50.872;5.306;2022-09-16T03:48:27;100803.78;;;12.21;87.30
25238;BME280;13185;50.872;5.306;2022-09-16T03:50:52;100813.69;;;12.21;87.43
25238;BME280;13185;50.872;5.306;2022-09-16T03:53:18;100811.88;;;12.21;87.80
25238;BME280;13185;50.872;5.306;2022-09-16T03:55:43;100817.25;;;12.21;87.96
25238;BME280;13185;50.872;5.306;2022-09-16T03:58:09;100819.81;;;12.23;88.72
25238;BME280;13185;50.872;5.306;2022-09-16T04:00:34;100827.03;;;12.22;88.76
25238;BME280;13185;50.872;5.306;2022-09-16T04:03:01;100821.22;;;12.16;90.68
25238;BME280;13185;50.872;5.306;2022-09-16T04:05:27;100809.84;;;12.12;92.73
25238;BME280;13185;50.872;5.306;2022-09-16T04:07:52;100816.19;;;12.11;93.72
25238;BME280;13185;50.872;5.306;2022-09-16T04:10:18;100819.84;;;12.10;94.54
25238;BME280;13185;50.872;5.306;2022-09-16T04:12:43;100812.63;;;12.10;94.72
25238;BME280;13185;50.872;5.306;2022-09-16T04:15:09;100807.16;;;12.12;95.50
25238;BME280;13185;50.872;5.306;2022-09-16T04:17:36;100817.66;;;12.15;95.87
25238;BME280;13185;50.872;5.306;2022-09-16T04:20:02;100818.53;;;12.16;95.60
25238;BME280;13185;50.872;5.306;2022-09-16T04:22:29;100814.00;;;12.16;95.91
25238;BME280;13185;50.872;5.306;2022-09-16T04:24:55;100806.28;;;12.11;95.77
25238;BME280;13185;50.872;5.306;2022-09-16T04:27:20;100812.41;;;12.13;96.06
25238;BME280;13185;50.872;5.306;2022-09-16T04:29:46;100811.44;;;12.14;96.05
25238;BME280;13185;50.872;5.306;2022-09-16T04:32:11;100810.56;;;12.14;95.73
25238;BME280;13185;50.872;5.306;2022-09-16T04:34:37;100814.13;;;12.14;95.90
25238;BME280;13185;50.872;5.306;2022-09-16T04:37:02;100812.41;;;12.13;96.13
25238;BME280;13185;50.872;5.306;2022-09-16T04:39:28;100809.59;;;12.15;95.82
25238;BME280;13185;50.872;5.306;2022-09-16T04:41:53;100806.91;;;12.15;95.57
25238;BME280;13185;50.872;5.306;2022-09-16T04:44:19;100809.59;;;12.15;95.84
25238;BME280;13185;50.872;5.306;2022-09-16T04:46:44;100805.09;;;12.16;95.86
25238;BME280;13185;50.872;5.306;2022-09-16T04:49:10;100811.44;;;12.14;96.21
25238;BME280;13185;50.872;5.306;2022-09-16T04:51:37;100803.38;;;12.14;96.49
25238;BME280;13185;50.872;5.306;2022-09-16T04:54:03;100812.41;;;12.13;96.46
25238;BME280;13185;50.872;5.306;2022-09-16T04:56:30;100802.75;;;12.11;96.63
25238;BME280;13185;50.872;5.306;2022-09-16T04:59:02;100815.31;;;12.10;97.02
25238;BME280;13185;50.872;5.306;2022-09-16T05:01:30;100805.53;;;12.09;96.99
25238;BME280;13185;50.872;5.306;2022-09-16T05:03:59;100807.38;;;12.09;97.58
25238;BME280;13185;50.872;5.306;2022-09-16T05:06:29;100810.91;;;12.09;97.86
25238;BME280;13185;50.872;5.306;2022-09-16T05:08:55;100809.09;;;12.10;98.17
25238;BME280;13185;50.872;5.306;2022-09-16T05:11:27;100804.69;;;12.09;98.71
25238;BME280;13185;50.872;5.306;2022-09-16T05:13:53;100820.81;;;12.09;98.93
25238;BME280;13185;50.872;5.306;2022-09-16T05:16:21;100820.81;;;12.09;99.17
25238;BME280;13185;50.872;5.306;2022-09-16T05:18:48;100820.69;;;12.10;99.40
25238;BME280;13185;50.872;5.306;2022-09-16T05:21:17;100822.53;;;12.10;99.84
25238;BME280;13185;50.872;5.306;2022-09-16T05:23:43;100812.53;;;12.12;100.00
25238;BME280;13185;50.872;5.306;2022-09-16T05:26:11;100811.66;;;12.11;100.00
25238;BME280;13185;50.872;5.306;2022-09-16T05:28:38;100820.59;;;12.12;100.00
25238;BME280;13185;50.872;5.306;2022-09-16T05:31:20;100816.94;;;12.13;100.00
25238;BME280;13185;50.872;5.306;2022-09-16T05:33:53;100818.41;;;12.17;100.00
25238;BME280;13185;50.872;5.306;2022-09-16T05:36:19;100825.31;;;12.21;100.00
25238;BME280;13185;50.872;5.306;2022-09-16T05:38:45;100827.13;;;12.21;100.00
25238;BME280;13185;50.872;5.306;2022-09-16T05:41:10;100820.78;;;12.22;100.00
25238;BME280;13185;50.872;5.306;2022-09-16T05:43:36;100829.47;;;12.25;100.00
25238;BME280;13185;50.872;5.306;2022-09-16T05:46:04;100823.88;;;12.28;100.00
25238;BME280;13185;50.872;5.306;2022-09-16T05:48:30;100832.78;;;12.29;100.00
25238;BME280;13185;50.872;5.306;2022-09-16T05:50:58;100832.72;;;12.30;100.00
25238;BME280;13185;50.872;5.306;2022-09-16T05:53:25;100834.44;;;12.31;100.00
25238;BME280;13185;50.872;5.306;2022-09-16T05:56:11;100838.84;;;12.32;100.00
25238;BME280;13185;50.872;5.306;2022-09-16T05:58:37;100835.91;;;12.35;99.93
25238;BME280;13185;50.872;5.306;2022-09-16T06:03:31;100839.03;;;12.42;99.88
25238;BME280;13185;50.872;5.306;2022-09-16T06:06:05;100838.06;;;12.43;99.65
25238;BME280;13185;50.872;5.306;2022-09-16T06:08:33;100844.19;;;12.45;99.70
25238;BME280;13185;50.872;5.306;2022-09-16T06:11:00;100828.88;;;12.46;99.74
25238;BME280;13185;50.872;5.306;2022-09-16T06:13:26;100841.38;;;12.47;99.60
25238;BME280;13185;50.872;5.306;2022-09-16T06:15:52;100841.13;;;12.50;100.00
25238;BME280;13185;50.872;5.306;2022-09-16T06:18:22;100845.56;;;12.51;100.00
25238;BME280;13185;50.872;5.306;2022-09-16T06:20:48;100846.31;;;12.53;100.00
25238;BME280;13185;50.872;5.306;2022-09-16T06:23:15;100837.38;;;12.52;99.82
25238;BME280;13185;50.872;5.306;2022-09-16T06:25:40;100845.09;;;12.57;99.45
25238;BME280;13185;50.872;5.306;2022-09-16T06:28:06;100843.81;;;12.62;99.27
25238;BME280;13185;50.872;5.306;2022-09-16T06:30:33;100839.78;;;12.68;99.18
25238;BME280;13185;50.872;5.306;2022-09-16T06:32:58;100836.88;;;12.71;98.66
25238;BME280;13185;50.872;5.306;2022-09-16T06:35:24;100838.25;;;12.77;98.23
25238;BME280;13185;50.872;5.306;2022-09-16T06:37:49;100850.50;;;12.81;97.67
25238;BME280;13185;50.872;5.306;2022-09-16T06:40:15;100848.66;;;12.81;97.12
25238;BME280;13185;50.872;5.306;2022-09-16T06:42:41;100851.03;;;12.86;96.89
25238;BME280;13185;50.872;5.306;2022-09-16T06:45:07;100854.34;;;12.89;96.54
25238;BME280;13185;50.872;5.306;2022-09-16T06:47:32;100848.41;;;12.97;96.60
25238;BME280;13185;50.872;5.306;2022-09-16T06:49:58;100848.56;;;13.07;96.34
25238;BME280;13185;50.872;5.306;2022-09-16T06:52:25;100857.66;;;13.17;96.05
25238;BME280;13185;50.872;5.306;2022-09-16T06:54:51;100859.59;;;13.27;95.64
25238;BME280;13185;50.872;5.306;2022-09-16T06:57:16;100856.75;;;13.29;94.26
25238;BME280;13185;50.872;5.306;2022-09-16T06:59:50;100859.69;;;13.26;93.00
25238;BME280;13185;50.872;5.306;2022-09-16T07:02:16;100855.75;;;13.19;92.71
25238;BME280;13185;50.872;5.306;2022-09-16T07:04:42;100860.25;;;13.18;92.88
25238;BME280;13185;50.872;5.306;2022-09-16T07:07:07;100864.56;;;13.21;92.98
25238;BME280;13185;50.872;5.306;2022-09-16T07:09:33;100868.75;;;13.25;92.95
25238;BME280;13185;50.872;5.306;2022-09-16T07:11:58;100855.41;;;13.23;93.25
25238;BME280;13185;50.872;5.306;2022-09-16T07:14:25;100855.16;;;13.26;93.57
25238;BME280;13185;50.872;5.306;2022-09-16T07:16:50;100861.53;;;13.25;94.12
25238;BME280;13185;50.872;5.306;2022-09-16T07:19:16;100857.13;;;13.24;94.36
25238;BME280;13185;50.872;5.306;2022-09-16T07:21:41;100853.06;;;13.19;94.01
25238;BME280;13185;50.872;5.306;2022-09-16T07:24:10;100858.31;;;13.20;94.45
25238;BME280;13185;50.872;5.306;2022-09-16T07:26:36;100866.94;;;13.25;94.73
25238;BME280;13185;50.872;5.306;2022-09-16T07:29:05;100860.31;;;13.29;94.60
25238;BME280;13185;50.872;5.306;2022-09-16T07:31:35;100856.41;;;13.34;94.28
25238;BME280;13185;50.872;5.306;2022-09-16T07:34:02;100860.59;;;13.38;94.44
25238;BME280;13185;50.872;5.306;2022-09-16T07:36:40;100868.31;;;13.42;94.59
25238;BME280;13185;50.872;5.306;2022-09-16T07:39:07;100872.63;;;13.45;94.82
25238;BME280;13185;50.872;5.306;2022-09-16T07:41:35;100872.16;;;13.51;94.50
25238;BME280;13185;50.872;5.306;2022-09-16T07:44:01;100868.00;;;13.58;94.17
25238;BME280;13185;50.872;5.306;2022-09-16T07:46:29;100860.41;;;13.63;93.66
25238;BME280;13185;50.872;5.306;2022-09-16T07:48:55;100869.75;;;13.70;93.68
25238;BME280;13185;50.872;5.306;2022-09-16T07:51:23;100870.16;;;13.77;93.00
25238;BME280;13185;50.872;5.306;2022-09-16T07:53:53;100863.03;;;13.76;92.69
25238;BME280;13185;50.872;5.306;2022-09-16T07:56:21;100877.59;;;13.73;92.34
25238;BME280;13185;50.872;5.306;2022-09-16T07:58:47;100884.53;;;13.65;91.99
25238;BME280;13185;50.872;5.306;2022-09-16T08:01:14;100887.59;;;13.60;92.41
25238;BME280;13185;50.872;5.306;2022-09-16T08:03:41;100896.66;;;13.59;92.67
25238;BME280;13185;50.872;5.306;2022-09-16T08:06:12;100888.34;;;13.62;92.67
25238;BME280;13185;50.872;5.306;2022-09-16T08:08:38;100888.38;;;13.73;93.54
25238;BME280;13185;50.872;5.306;2022-09-16T08:11:05;100891.06;;;13.73;92.68
25238;BME280;13185;50.872;5.306;2022-09-16T08:13:32;100889.00;;;13.77;92.26
25238;BME280;13185;50.872;5.306;2022-09-16T08:16:03;100895.13;;;13.79;92.68
25238;BME280;13185;50.872;5.306;2022-09-16T08:18:29;100897.94;;;13.66;92.38
25238;BME280;13185;50.872;5.306;2022-09-16T08:20:55;100891.97;;;13.50;94.24
25238;BME280;13185;50.872;5.306;2022-09-16T08:23:22;100900.31;;;13.47;94.98
25238;BME280;13185;50.872;5.306;2022-09-16T08:25:57;100900.28;;;13.36;94.72
25238;BME280;13185;50.872;5.306;2022-09-16T08:28:23;100909.41;;;13.33;95.37
25238;BME280;13185;50.872;5.306;2022-09-16T08:30:49;100918.72;;;13.29;95.79
25238;BME280;13185;50.872;5.306;2022-09-16T08:33:15;100914.66;;;13.23;96.07
25238;BME280;13185;50.872;5.306;2022-09-16T08:35:45;100924.47;;;13.24;97.06
25238;BME280;13185;50.872;5.306;2022-09-16T08:38:12;100921.84;;;13.23;97.58
25238;BME280;13185;50.872;5.306;2022-09-16T08:40:43;100925.19;;;13.26;97.06
25238;BME280;13185;50.872;5.306;2022-09-16T08:43:30;100930.09;;;13.33;97.02
25238;BME280;13185;50.872;5.306;2022-09-16T08:46:19;100940.31;;;13.40;97.00
25238;BME280;13185;50.872;5.306;2022-09-16T08:49:04;100943.75;;;13.42;96.25
25238;BME280;13185;50.872;5.306;2022-09-16T08:51:31;100935.78;;;13.41;96.23
25238;BME280;13185;50.872;5.306;2022-09-16T08:54:03;100945.47;;;13.43;96.39
25238;BME280;13185;50.872;5.306;2022-09-16T08:56:32;100938.75;;;13.49;95.90
25238;BME280;13185;50.872;5.306;2022-09-16T08:59:00;100933.53;;;13.58;96.37
25238;BME280;13185;50.872;5.306;2022-09-16T09:04:12;100928.47;;;13.78;96.03
25238;BME280;13185;50.872;5.306;2022-09-16T09:39:46;100922.91;;;14.26;89.41
25238;BME280;13185;50.872;5.306;2022-09-16T09:42:29;100918.25;;;14.28;89.14
25238;BME280;13185;50.872;5.306;2022-09-16T09:45:26;100917.88;;;14.32;88.94
25238;BME280;13185;50.872;5.306;2022-09-16T09:48:02;100918.00;;;14.42;87.87
25238;BME280;13185;50.872;5.306;2022-09-16T09:50:39;100913.63;;;14.52;87.72
25238;BME280;13185;50.872;5.306;2022-09-16T09:53:22;100915.06;;;14.67;87.22
25238;BME280;13185;50.872;5.306;2022-09-16T09:55:50;100923.66;;;14.72;85.14
25238;BME280;13185;50.872;5.306;2022-09-16T09:58:35;100918.88;;;14.76;84.70
25238;BME280;13185;50.872;5.306;2022-09-16T10:01:02;100913.72;;;14.84;84.55
25238;BME280;13185;50.872;5.306;2022-09-16T10:03:29;100916.53;;;14.94;84.31
25238;BME280;13185;50.872;5.306;2022-09-16T10:05:54;100914.09;;;14.91;83.25
25238;BME280;13185;50.872;5.306;2022-09-16T10:08:22;100913.56;;;14.97;83.72
25238;BME280;13185;50.872;5.306;2022-09-16T10:10:53;100916.84;;;15.00;82.46
25238;BME280;13185;50.872;5.306;2022-09-16T10:13:20;100919.81;;;14.97;81.68
25238;BME280;13185;50.872;5.306;2022-09-16T10:15:47;100922.91;;;14.93;81.82
25238;BME280;13185;50.872;5.306;2022-09-16T10:18:28;100931.78;;;14.72;83.84
25238;BME280;13185;50.872;5.306;2022-09-16T10:21:14;100933.38;;;14.53;85.76
25238;BME280;13185;50.872;5.306;2022-09-16T10:23:40;100950.13;;;14.23;87.92
25238;BME280;13185;50.872;5.306;2022-09-16T10:26:23;100957.50;;;13.85;89.89
25238;BME280;13185;50.872;5.306;2022-09-16T10:29:14;100933.56;;;13.70;92.89
25238;BME280;13185;50.872;5.306;2022-09-16T10:31:40;100937.59;;;13.64;94.29
25238;BME280;13185;50.872;5.306;2022-09-16T10:34:35;100936.63;;;13.65;96.41
25238;BME280;13185;50.872;5.306;2022-09-16T10:39:43;100937.75;;;13.74;99.31
25238;BME280;13185;50.872;5.306;2022-09-16T10:42:36;100922.81;;;13.81;100.00
25238;BME280;13185;50.872;5.306;2022-09-16T10:45:19;100926.91;;;13.86;99.81
25238;BME280;13185;50.872;5.306;2022-09-16T10:47:56;100917.19;;;13.84;98.82
25238;BME280;13185;50.872;5.306;2022-09-16T10:50:22;100920.13;;;13.81;98.77
25238;BME280;13185;50.872;5.306;2022-09-16T10:52:48;100918.91;;;13.85;98.67
25238;BME280;13185;50.872;5.306;2022-09-16T10:55:30;100910.19;;;13.81;97.67
25238;BME280;13185;50.872;5.306;2022-09-16T10:58:15;100908.38;;;13.82;98.41
25238;BME280;13185;50.872;5.306;2022-09-16T11:19:09;100903.03;;;14.83;89.45
25238;BME280;13185;50.872;5.306;2022-09-16T11:26:58;100909.03;;;14.86;84.86
25238;BME280;13185;50.872;5.306;2022-09-16T11:29:48;100919.13;;;14.73;81.59
25238;BME280;13185;50.872;5.306;2022-09-16T11:35:57;100921.69;;;14.75;82.02
25238;BME280;13185;50.872;5.306;2022-09-16T11:41:36;100926.13;;;14.53;78.88
25238;BME280;13185;50.872;5.306;2022-09-16T11:44:25;100938.38;;;14.46;78.63
25238;BME280;13185;50.872;5.306;2022-09-16T11:52:48;100929.31;;;14.58;78.84
25238;BME280;13185;50.872;5.306;2022-09-16T11:58:17;100930.16;;;14.81;79.28
25238;BME280;13185;50.872;5.306;2022-09-16T12:00:45;100934.94;;;14.89;78.38
25238;BME280;13185;50.872;5.306;2022-09-16T12:03:25;100932.22;;;14.89;78.79
25238;BME280;13185;50.872;5.306;2022-09-16T12:05:57;100930.25;;;15.02;79.51
25238;BME280;13185;50.872;5.306;2022-09-16T12:11:34;100934.78;;;15.45;78.66
25238;BME280;13185;50.872;5.306;2022-09-16T12:19:28;100945.19;;;15.61;75.82
25238;BME280;13185;50.872;5.306;2022-09-16T12:22:20;100950.25;;;15.54;76.32
25238;BME280;13185;50.872;5.306;2022-09-16T12:25:02;100964.16;;;15.38;75.22
25238;BME280;13185;50.872;5.306;2022-09-16T12:27:50;100976.91;;;15.04;75.62
25238;BME280;13185;50.872;5.306;2022-09-16T12:30:24;100963.06;;;14.64;79.42
25238;BME280;13185;50.872;5.306;2022-09-16T12:35:30;100956.50;;;14.22;84.64
25238;BME280;13185;50.872;5.306;2022-09-16T12:37:58;100962.59;;;14.12;84.69
25238;BME280;13185;50.872;5.306;2022-09-16T12:40:30;100961.72;;;14.01;85.63
25238;BME280;13185;50.872;5.306;2022-09-16T12:53:49;100942.56;;;14.39;91.05
25238;BME280;13185;50.872;5.306;2022-09-16T13:01:45;100934.72;;;14.69;94.15
25238;BME280;13185;50.872;5.306;2022-09-16T13:04:20;100932.50;;;14.75;91.54
25238;BME280;13185;50.872;5.306;2022-09-16T13:06:53;100932.50;;;14.75;87.67
25238;BME280;13185;50.872;5.306;2022-09-16T13:09:30;100934.59;;;14.71;85.55
25238;BME280;13185;50.872;5.306;2022-09-16T13:12:00;100942.56;;;14.72;84.73
25238;BME280;13185;50.872;5.306;2022-09-16T13:14:29;100952.50;;;14.83;85.98
25238;BME280;13185;50.872;5.306;2022-09-16T13:16:58;100943.16;;;14.87;85.58
25238;BME280;13185;50.872;5.306;2022-09-16T13:19:32;100935.75;;;15.00;85.70
25238;BME280;13185;50.872;5.306;2022-09-16T13:24:43;100931.56;;;15.08;82.84
25238;BME280;13185;50.872;5.306;2022-09-16T13:27:25;100950.63;;;15.06;81.78
25238;BME280;13185;50.872;5.306;2022-09-16T13:30:11;100937.13;;;15.06;81.74
25238;BME280;13185;50.872;5.306;2022-09-16T13:32:56;100961.75;;;15.24;82.25
25238;BME280;13185;50.872;5.306;2022-09-16T13:35:35;100950.59;;;15.17;79.22
25238;BME280;13185;50.872;5.306;2022-09-16T13:38:19;100942.66;;;15.05;77.82
25238;BME280;13185;50.872;5.306;2022-09-16T13:40:58;100951.38;;;14.86;77.42
25238;BME280;13185;50.872;5.306;2022-09-16T13:43:35;100945.63;;;14.68;77.12
25238;BME280;13185;50.872;5.306;2022-09-16T13:46:10;100933.50;;;14.62;78.67
25238;BME280;13185;50.872;5.306;2022-09-16T13:48:43;100943.44;;;14.62;78.12
25238;BME280;13185;50.872;5.306;2022-09-16T13:51:18;100936.44;;;14.59;78.04
25238;BME280;13185;50.872;5.306;2022-09-16T13:53:47;100937.19;;;14.50;77.21
25238;BME280;13185;50.872;5.306;2022-09-16T14:10:17;100921.75;;;15.07;75.54
25238;BME280;13185;50.872;5.306;2022-09-16T14:12:47;100926.28;;;15.17;76.22
25238;BME280;13185;50.872;5.306;2022-09-16T14:15:18;100922.31;;;15.21;75.92
25238;BME280;13185;50.872;5.306;2022-09-16T14:17:51;100918.75;;;15.21;74.93
25238;BME280;13185;50.872;5.306;2022-09-16T14:20:21;100933.13;;;15.21;74.69
25238;BME280;13185;50.872;5.306;2022-09-16T14:22:59;100922.22;;;15.23;74.84
25238;BME280;13185;50.872;5.306;2022-09-16T14:25:30;100920.06;;;15.38;74.93
25238;BME280;13185;50.872;5.306;2022-09-16T14:30:35;100915.78;;;16.09;73.98
25238;BME280;13185;50.872;5.306;2022-09-16T14:33:01;100917.34;;;16.32;72.32
25238;BME280;13185;50.872;5.306;2022-09-16T14:35:27;100910.44;;;16.49;72.04
25238;BME280;13185;50.872;5.306;2022-09-16T14:37:56;100923.88;;;16.60;68.84
25238;BME280;13185;50.872;5.306;2022-09-16T14:40:24;100920.13;;;16.52;66.93
25238;BME280;13185;50.872;5.306;2022-09-16T14:42:54;100912.72;;;16.54;67.04
25238;BME280;13185;50.872;5.306;2022-09-16T14:45:21;100920.19;;;16.61;67.49
25238;BME280;13185;50.872;5.306;2022-09-16T14:47:48;100915.56;;;16.73;67.23
25238;BME280;13185;50.872;5.306;2022-09-16T14:50:21;100910.69;;;16.77;66.03
25238;BME280;13185;50.872;5.306;2022-09-16T14:53:01;100912.31;;;16.79;66.76
25238;BME280;13185;50.872;5.306;2022-09-16T14:55:30;100913.59;;;16.85;67.11
25238;BME280;13185;50.872;5.306;2022-09-16T14:57:57;100908.63;;;16.90;67.49
25238;BME280;13185;50.872;5.306;2022-09-16T15:00:28;100913.63;;;16.64;67.31
25238;BME280;13185;50.872;5.306;2022-09-16T15:02:59;100900.72;;;16.37;67.87
25238;BME280;13185;50.872;5.306;2022-09-16T15:05:32;100904.63;;;16.23;68.70
25238;BME280;13185;50.872;5.306;2022-09-16T15:11:16;100897.88;;;16.38;67.61
25238;BME280;13185;50.872;5.306;2022-09-16T15:13:43;100894.13;;;16.30;67.03
25238;BME280;13185;50.872;5.306;2022-09-16T15:16:15;100901.53;;;16.28;68.11
25238;BME280;13185;50.872;5.306;2022-09-16T15:18:58;100911.28;;;16.19;70.58
25238;BME280;13185;50.872;5.306;2022-09-16T15:21:27;100893.34;;;16.49;71.55
25238;BME280;13185;50.872;5.306;2022-09-16T15:23:57;100908.06;;;16.65;70.89
25238;BME280;13185;50.872;5.306;2022-09-16T15:26:28;100909.13;;;16.43;70.93
25238;BME280;13185;50.872;5.306;2022-09-16T15:31:32;100912.00;;;16.21;72.30
25238;BME280;13185;50.872;5.306;2022-09-16T15:34:00;100909.22;;;16.32;72.03
25238;BME280;13185;50.872;5.306;2022-09-16T15:36:35;100914.53;;;16.43;72.11
25238;BME280;13185;50.872;5.306;2022-09-16T15:39:01;100916.03;;;16.57;72.25
25238;BME280;13185;50.872;5.306;2022-09-16T15:41:27;100940.91;;;16.72;71.93
25238;BME280;13185;50.872;5.306;2022-09-16T15:43:52;100933.22;;;16.77;71.03
25238;BME280;13185;50.872;5.306;2022-09-16T15:46:21;100939.53;;;16.87;68.45
25238;BME280;13185;50.872;5.306;2022-09-16T15:48:52;100943.34;;;16.75;66.91
25238;BME280;13185;50.872;5.306;2022-09-16T15:51:33;100934.25;;;16.55;67.88
25238;BME280;13185;50.872;5.306;2022-09-16T15:56:39;100949.50;;;16.26;71.32
25238;BME280;13185;50.872;5.306;2022-09-16T15:59:27;100950.50;;;16.04;72.90
25238;BME280;13185;50.872;5.306;2022-09-16T16:01:57;100946.53;;;15.87;73.65
25238;BME280;13185;50.872;5.306;2022-09-16T16:04:30;100944.81;;;15.65;75.58
25238;BME280;13185;50.872;5.306;2022-09-16T16:07:06;100941.00;;;15.56;76.96